createdAt,value
2022-08-22T00:00:26.143Z,7.50
2022-08-22T00:01:26.150Z,5.60
2022-08-22T00:02:26.726Z,6.10
2022-08-22T00:02:44.327Z,5.40
2022-08-22T00:02:53.606Z,6.60
2022-08-22T00:02:55.262Z,6.50
2022-08-22T00:02:59.714Z,6.40
2022-08-22T00:03:00.473Z,4.80
2022-08-22T00:03:00.887Z,4.70
2022-08-22T00:03:01.690Z,5.00
2022-08-22T00:03:01.923Z,5.10
2022-08-22T00:03:04.187Z,5.10
2022-08-22T00:03:12.644Z,6.40
2022-08-22T00:03:26.122Z,5.40
2022-08-22T00:04:26.118Z,5.60
2022-08-22T00:05:26.115Z,6.40
2022-08-22T00:06:26.132Z,6.00
2022-08-22T00:07:26.112Z,8.40
2022-08-22T00:08:26.104Z,7.70
2022-08-22T00:09:26.103Z,7.70
2022-08-22T00:10:26.097Z,8.10
2022-08-22T00:11:26.092Z,7.10
2022-08-22T00:12:26.096Z,7.80
2022-08-22T00:13:26.085Z,7.00
2022-08-22T00:14:26.081Z,6.80
2022-08-22T00:15:43.755Z,6.60
2022-08-22T00:16:26.076Z,5.40
2022-08-22T00:17:26.069Z,6.40
2022-08-22T00:18:26.075Z,7.80
2022-08-22T00:19:33.223Z,6.50
2022-08-22T00:21:30.076Z,6.50
2022-08-22T00:22:30.057Z,7.80
2022-08-22T00:24:34.076Z,6.90
2022-08-22T00:25:34.066Z,8.10
2022-08-22T00:27:27.005Z,7.70
2022-08-22T00:28:26.984Z,7.20
2022-08-22T00:30:19.894Z,7.90
2022-08-22T00:31:19.886Z,7.00
2022-08-22T00:33:24.456Z,7.70
2022-08-22T00:34:24.428Z,6.30
2022-08-22T00:35:24.423Z,9.20
2022-08-22T00:36:24.424Z,6.70
2022-08-22T00:37:24.453Z,8.40
2022-08-22T00:38:24.412Z,7.40
2022-08-22T00:39:24.413Z,8.10
2022-08-22T00:40:24.407Z,10.00
2022-08-22T00:41:24.401Z,8.80
2022-08-22T00:42:29.477Z,7.10
2022-08-22T00:43:24.393Z,7.30
2022-08-22T00:44:24.395Z,5.70
2022-08-22T00:45:24.389Z,7.50
2022-08-22T00:46:24.384Z,7.20
2022-08-22T00:47:24.377Z,7.70
2022-08-22T00:48:24.374Z,6.90
2022-08-22T00:49:24.407Z,7.80
2022-08-22T00:50:24.367Z,6.80
2022-08-22T00:51:24.366Z,6.40
2022-08-22T00:52:24.356Z,6.20
2022-08-22T00:53:24.353Z,5.90
2022-08-22T00:54:24.350Z,5.30
2022-08-22T00:55:24.345Z,5.40
2022-08-22T00:56:24.345Z,7.50
2022-08-22T00:57:24.335Z,7.10
2022-08-22T00:58:24.332Z,7.00
2022-08-22T00:59:24.327Z,6.40
2022-08-22T01:00:24.357Z,4.50
2022-08-22T01:01:24.361Z,6.40
2022-08-22T01:02:24.319Z,6.00
2022-08-22T01:03:24.312Z,9.00
2022-08-22T01:04:24.306Z,7.20
2022-08-22T01:05:24.306Z,8.90
2022-08-22T01:06:24.298Z,5.90
2022-08-22T01:07:24.291Z,6.90
2022-08-22T01:08:24.290Z,6.60
2022-08-22T01:09:24.284Z,7.20
2022-08-22T01:10:24.277Z,5.60
2022-08-22T01:11:24.275Z,5.30
2022-08-22T01:12:24.273Z,7.20
2022-08-22T01:13:24.268Z,8.10
2022-08-22T01:14:35.128Z,6.70
2022-08-22T01:15:24.260Z,8.00
2022-08-22T01:16:24.255Z,7.80
2022-08-22T01:17:24.249Z,6.60
2022-08-22T01:18:24.249Z,8.00
2022-08-22T01:19:24.239Z,5.80
2022-08-22T01:20:24.236Z,6.00
2022-08-22T01:21:24.515Z,5.60
2022-08-22T01:22:24.229Z,7.00
2022-08-22T01:23:24.220Z,6.80
2022-08-22T01:24:24.287Z,5.50
2022-08-22T01:25:26.034Z,6.70
2022-08-22T01:26:24.212Z,6.60
2022-08-22T01:27:24.207Z,6.10
2022-08-22T01:28:24.203Z,6.00
2022-08-22T01:29:27.862Z,6.80
2022-08-22T01:30:24.195Z,7.10
2022-08-22T01:31:24.189Z,8.00
2022-08-22T01:32:24.188Z,8.60
2022-08-22T01:33:24.182Z,9.20
2022-08-22T01:34:24.177Z,8.60
2022-08-22T01:35:24.173Z,8.90
2022-08-22T01:36:24.169Z,8.00
2022-08-22T01:37:24.164Z,8.00
2022-08-22T01:38:24.158Z,5.70
2022-08-22T01:39:24.154Z,5.70
2022-08-22T01:40:24.167Z,5.60
2022-08-22T01:41:24.147Z,8.00
2022-08-22T01:42:24.142Z,8.30
2022-08-22T01:43:55.499Z,5.80
2022-08-22T01:44:24.135Z,6.20
2022-08-22T01:45:24.132Z,7.00
2022-08-22T01:46:24.124Z,7.00
2022-08-22T01:47:24.117Z,6.40
2022-08-22T01:48:24.114Z,6.40
2022-08-22T01:49:24.109Z,6.10
2022-08-22T01:50:24.106Z,7.70
2022-08-22T01:51:24.101Z,7.40
2022-08-22T01:52:24.096Z,8.10
2022-08-22T01:53:24.095Z,6.90
2022-08-22T01:54:24.091Z,8.70
2022-08-22T01:55:24.078Z,7.40
2022-08-22T01:56:24.081Z,5.70
2022-08-22T01:57:24.073Z,7.90
2022-08-22T01:58:24.071Z,6.60
2022-08-22T01:59:25.379Z,7.40
2022-08-22T02:00:35.277Z,6.20
2022-08-22T02:01:24.113Z,7.70
2022-08-22T02:02:24.052Z,6.70
2022-08-22T02:03:24.051Z,7.00
2022-08-22T02:04:24.046Z,6.90
2022-08-22T02:05:24.042Z,6.80
2022-08-22T02:06:24.034Z,6.30
2022-08-22T02:07:31.868Z,7.10
2022-08-22T02:08:24.026Z,6.00
2022-08-22T02:09:24.022Z,6.40
2022-08-22T02:10:24.015Z,7.50
2022-08-22T02:11:24.010Z,6.10
2022-08-22T02:12:24.008Z,5.70
2022-08-22T02:13:24.004Z,6.60
2022-08-22T02:14:23.997Z,5.80
2022-08-22T02:15:23.995Z,7.00
2022-08-22T02:16:23.990Z,6.80
2022-08-22T02:17:23.983Z,7.20
2022-08-22T02:18:23.977Z,6.00
2022-08-22T02:19:23.974Z,6.50
2022-08-22T02:20:23.972Z,7.50
2022-08-22T02:21:23.966Z,5.60
2022-08-22T02:22:23.961Z,7.50
2022-08-22T02:23:23.955Z,6.10
2022-08-22T02:24:23.949Z,6.70
2022-08-22T02:25:23.950Z,7.80
2022-08-22T02:26:23.943Z,6.00
2022-08-22T02:27:23.937Z,6.30
2022-08-22T02:28:23.935Z,6.60
2022-08-22T02:29:23.928Z,6.70
2022-08-22T02:30:23.928Z,8.10
2022-08-22T02:31:23.926Z,7.00
2022-08-22T02:32:23.915Z,6.50
2022-08-22T02:33:23.909Z,7.30
2022-08-22T02:34:23.907Z,6.80
2022-08-22T02:35:23.901Z,7.20
2022-08-22T02:36:23.895Z,9.40
2022-08-22T02:37:23.892Z,6.90
2022-08-22T02:38:23.890Z,8.70
2022-08-22T02:39:23.882Z,5.70
2022-08-22T02:40:23.891Z,6.80
2022-08-22T02:41:23.875Z,6.80
2022-08-22T02:42:23.865Z,7.30
2022-08-22T02:43:23.861Z,7.10
2022-08-22T02:44:23.857Z,6.20
2022-08-22T02:45:23.855Z,4.90
2022-08-22T02:46:23.850Z,5.70
2022-08-22T02:47:23.845Z,5.50
2022-08-22T02:48:23.838Z,6.00
2022-08-22T02:49:23.833Z,5.50
2022-08-22T02:50:23.829Z,5.10
2022-08-22T02:51:23.825Z,6.40
2022-08-22T02:52:23.823Z,4.80
2022-08-22T02:53:23.814Z,5.40
2022-08-22T02:54:23.813Z,6.00
2022-08-22T02:55:23.808Z,8.50
2022-08-22T02:56:23.801Z,5.20
2022-08-22T02:57:23.798Z,6.10
2022-08-22T02:58:23.790Z,6.70
2022-08-22T02:59:23.785Z,7.90
2022-08-22T03:00:30.893Z,6.70
2022-08-22T03:01:23.802Z,6.50
2022-08-22T03:02:23.773Z,9.50
2022-08-22T03:03:23.772Z,9.70
2022-08-22T03:04:23.766Z,8.10
2022-08-22T03:05:23.766Z,9.50
2022-08-22T03:06:23.774Z,10.20
2022-08-22T03:07:23.747Z,11.40
2022-08-22T03:08:23.751Z,10.40
2022-08-22T03:09:23.743Z,14.10
2022-08-22T03:10:23.731Z,8.70
2022-08-22T03:11:23.730Z,7.30
2022-08-22T03:12:23.726Z,7.30
2022-08-22T03:13:23.720Z,8.10
2022-08-22T03:14:23.714Z,9.90
2022-08-22T03:15:23.708Z,6.60
2022-08-22T03:16:23.704Z,6.80
2022-08-22T03:17:23.700Z,6.60
2022-08-22T03:18:23.696Z,6.10
2022-08-22T03:19:23.691Z,9.30
2022-08-22T03:20:23.689Z,6.60
2022-08-22T03:21:23.681Z,6.50
2022-08-22T03:22:23.675Z,5.70
2022-08-22T03:23:23.671Z,7.30
2022-08-22T03:24:23.666Z,6.30
2022-08-22T03:25:23.661Z,7.60
2022-08-22T03:26:23.654Z,6.60
2022-08-22T03:27:32.542Z,4.90
2022-08-22T03:28:23.645Z,4.30
2022-08-22T03:29:23.643Z,6.20
2022-08-22T03:30:23.634Z,5.40
2022-08-22T03:31:23.632Z,7.60
2022-08-22T03:32:23.626Z,4.70
2022-08-22T03:33:23.622Z,5.00
2022-08-22T03:34:23.614Z,6.30
2022-08-22T03:35:23.614Z,6.50
2022-08-22T03:36:23.607Z,6.80
2022-08-22T03:37:23.602Z,7.90
2022-08-22T03:38:23.601Z,8.30
2022-08-22T03:39:23.592Z,6.70
2022-08-22T03:40:23.657Z,6.90
2022-08-22T03:41:23.582Z,7.30
2022-08-22T03:42:23.577Z,6.80
2022-08-22T03:43:23.573Z,6.50
2022-08-22T03:44:23.567Z,6.80
2022-08-22T03:45:23.563Z,7.10
2022-08-22T03:46:23.559Z,6.00
2022-08-22T03:47:23.550Z,6.30
2022-08-22T03:48:23.546Z,8.40
2022-08-22T03:49:23.544Z,7.20
2022-08-22T03:50:23.537Z,7.70
2022-08-22T03:51:23.534Z,8.80
2022-08-22T03:52:23.535Z,4.50
2022-08-22T03:53:23.523Z,5.70
2022-08-22T03:54:23.516Z,7.30
2022-08-22T03:55:23.513Z,7.60
2022-08-22T03:56:23.507Z,7.00
2022-08-22T03:57:23.502Z,6.70
2022-08-22T03:58:27.943Z,6.70
2022-08-22T03:59:23.495Z,7.10
2022-08-22T04:00:23.488Z,8.60
2022-08-22T04:01:23.482Z,7.30
2022-08-22T04:02:43.619Z,6.40
2022-08-22T04:03:23.476Z,6.60
2022-08-22T04:04:23.469Z,7.90
2022-08-22T04:05:23.464Z,6.70
2022-08-22T04:06:23.460Z,5.60
2022-08-22T04:07:31.644Z,5.10
2022-08-22T04:08:26.264Z,7.40
2022-08-22T04:09:23.446Z,7.10
2022-08-22T04:10:23.439Z,7.50
2022-08-22T04:11:23.433Z,5.40
2022-08-22T04:12:23.430Z,5.60
2022-08-22T04:13:24.913Z,4.50
2022-08-22T04:14:23.420Z,7.50
2022-08-22T04:15:23.415Z,8.10
2022-08-22T04:16:23.415Z,7.40
2022-08-22T04:17:23.408Z,6.40
2022-08-22T04:18:23.478Z,5.50
2022-08-22T04:19:23.397Z,6.10
2022-08-22T04:20:23.391Z,7.60
2022-08-22T04:21:23.386Z,5.80
2022-08-22T04:22:23.379Z,5.60
2022-08-22T04:23:23.374Z,5.00
2022-08-22T04:24:23.372Z,5.80
2022-08-22T04:25:23.372Z,5.80
2022-08-22T04:26:23.361Z,4.70
2022-08-22T04:27:23.358Z,5.90
2022-08-22T04:28:23.353Z,5.70
2022-08-22T04:29:23.353Z,6.80
2022-08-22T04:30:23.350Z,6.90
2022-08-22T04:31:23.338Z,5.10
2022-08-22T04:32:23.329Z,5.50
2022-08-22T04:33:23.327Z,7.30
2022-08-22T04:34:23.319Z,6.70
2022-08-22T04:35:23.314Z,4.50
2022-08-22T04:36:23.314Z,5.90
2022-08-22T04:37:23.308Z,5.50
2022-08-22T04:38:23.302Z,5.00
2022-08-22T04:39:23.297Z,6.40
2022-08-22T04:40:23.320Z,5.30
2022-08-22T04:41:23.288Z,6.80
2022-08-22T04:42:33.745Z,6.00
2022-08-22T04:43:23.348Z,8.20
2022-08-22T04:44:23.278Z,7.50
2022-08-22T04:45:23.268Z,7.20
2022-08-22T04:46:23.261Z,4.70
2022-08-22T04:47:23.258Z,5.50
2022-08-22T04:48:23.254Z,6.30
2022-08-22T04:49:23.251Z,5.80
2022-08-22T04:50:23.247Z,4.90
2022-08-22T04:51:23.239Z,4.80
2022-08-22T04:52:23.235Z,5.60
2022-08-22T04:53:23.231Z,5.80
2022-08-22T04:54:23.225Z,4.90
2022-08-22T04:55:23.222Z,5.10
2022-08-22T04:56:23.221Z,6.00
2022-08-22T04:57:23.211Z,7.20
2022-08-22T04:58:23.206Z,6.10
2022-08-22T04:59:23.200Z,5.00
2022-08-22T05:00:23.193Z,5.50
2022-08-22T05:01:23.278Z,5.60
2022-08-22T05:02:23.183Z,5.50
2022-08-22T05:03:23.190Z,7.70
2022-08-22T05:04:23.177Z,5.40
2022-08-22T05:05:23.172Z,6.30
2022-08-22T05:06:23.168Z,5.70
2022-08-22T05:07:23.161Z,6.40
2022-08-22T05:08:23.165Z,9.80
2022-08-22T05:09:23.154Z,6.40
2022-08-22T05:10:23.149Z,8.70
2022-08-22T05:11:23.144Z,5.50
2022-08-22T05:12:23.139Z,7.00
2022-08-22T05:13:23.135Z,6.20
2022-08-22T05:14:23.131Z,7.90
2022-08-22T05:15:23.535Z,8.70
2022-08-22T05:16:23.126Z,7.20
2022-08-22T05:17:23.114Z,7.10
2022-08-22T05:18:23.112Z,5.80
2022-08-22T05:19:29.671Z,6.50
2022-08-22T05:20:23.104Z,6.30
2022-08-22T05:21:23.096Z,6.60
2022-08-22T05:22:23.091Z,6.00
2022-08-22T05:23:23.099Z,5.80
2022-08-22T05:24:23.087Z,4.80
2022-08-22T05:25:23.080Z,4.40
2022-08-22T05:26:23.077Z,7.00
2022-08-22T05:27:23.069Z,5.60
2022-08-22T05:28:23.067Z,8.90
2022-08-22T05:29:23.064Z,5.20
2022-08-22T05:30:23.058Z,4.30
2022-08-22T05:31:23.982Z,4.50
2022-08-22T05:32:23.049Z,5.80
2022-08-22T05:33:23.045Z,6.70
2022-08-22T05:34:23.037Z,8.60
2022-08-22T05:35:23.031Z,7.80
2022-08-22T05:36:23.029Z,7.70
2022-08-22T05:37:23.028Z,4.80
2022-08-22T05:38:23.020Z,4.30
2022-08-22T05:39:25.220Z,5.30
2022-08-22T05:40:23.049Z,4.80
2022-08-22T05:41:23.008Z,6.70
2022-08-22T05:42:23.004Z,5.80
2022-08-22T05:43:22.997Z,5.50
2022-08-22T05:44:22.993Z,7.90
2022-08-22T05:45:22.991Z,6.40
2022-08-22T05:46:26.814Z,4.20
2022-08-22T05:47:22.990Z,5.10
2022-08-22T05:48:22.979Z,6.10
2022-08-22T05:49:22.971Z,5.20
2022-08-22T05:50:22.968Z,4.20
2022-08-22T05:51:22.963Z,7.30
2022-08-22T05:52:22.961Z,4.80
2022-08-22T05:53:22.959Z,5.40
2022-08-22T05:54:33.760Z,5.50
2022-08-22T05:55:22.949Z,5.00
2022-08-22T05:56:22.949Z,4.90
2022-08-22T05:57:22.942Z,5.00
2022-08-22T05:58:22.937Z,6.40
2022-08-22T05:59:22.935Z,4.80
2022-08-22T06:00:22.931Z,5.00
2022-08-22T06:01:22.956Z,5.10
2022-08-22T06:02:22.925Z,4.40
2022-08-22T06:03:22.968Z,5.40
2022-08-22T06:04:22.914Z,6.30
2022-08-22T06:05:22.914Z,4.50
2022-08-22T06:06:22.910Z,4.80
2022-08-22T06:07:22.905Z,5.50
2022-08-22T06:08:22.901Z,6.40
2022-08-22T06:09:22.901Z,5.70
2022-08-22T06:10:22.900Z,6.50
2022-08-22T06:11:22.893Z,5.20
2022-08-22T06:12:22.892Z,4.60
2022-08-22T06:13:24.740Z,5.70
2022-08-22T06:14:24.801Z,4.30
2022-08-22T06:15:22.886Z,5.90
2022-08-22T06:16:22.877Z,7.40
2022-08-22T06:17:22.876Z,4.20
2022-08-22T06:18:22.878Z,5.00
2022-08-22T06:19:22.870Z,7.10
2022-08-22T06:20:30.033Z,5.20
2022-08-22T06:22:26.910Z,6.20
2022-08-22T06:23:26.895Z,7.40
2022-08-22T06:25:30.912Z,6.60
2022-08-22T06:26:30.899Z,6.60
2022-08-22T06:28:34.925Z,5.40
2022-08-22T06:29:34.915Z,7.80
2022-08-22T06:31:28.078Z,5.70
2022-08-22T06:32:34.160Z,6.40
2022-08-22T06:33:28.038Z,5.60
2022-08-22T06:34:28.039Z,5.00
2022-08-22T06:35:28.034Z,7.00
2022-08-22T06:36:28.033Z,5.90
2022-08-22T06:37:28.032Z,7.40
2022-08-22T06:38:28.047Z,5.90
2022-08-22T06:39:28.027Z,4.20
2022-08-22T06:40:28.030Z,6.60
2022-08-22T06:41:28.025Z,6.50
2022-08-22T06:42:28.026Z,5.50
2022-08-22T06:43:28.022Z,5.30
2022-08-22T06:44:28.021Z,5.00
2022-08-22T06:45:28.019Z,8.00
2022-08-22T06:46:28.031Z,7.10
2022-08-22T06:47:28.015Z,6.90
2022-08-22T06:48:28.013Z,5.80
2022-08-22T06:49:28.013Z,5.70
2022-08-22T06:50:28.010Z,7.30
2022-08-22T06:51:28.011Z,6.80
2022-08-22T06:52:28.010Z,5.70
2022-08-22T06:53:28.059Z,6.30
2022-08-22T06:54:32.512Z,7.90
2022-08-22T06:55:28.007Z,5.80
2022-08-22T06:56:28.006Z,7.80
2022-08-22T06:57:28.004Z,6.80
2022-08-22T06:58:31.011Z,6.00
2022-08-22T06:59:28.000Z,10.60
2022-08-22T07:00:27.999Z,5.20
2022-08-22T07:01:28.070Z,7.20
2022-08-22T07:02:28.013Z,6.30
2022-08-22T07:03:27.997Z,6.00
2022-08-22T07:04:27.997Z,7.30
2022-08-22T07:05:27.997Z,6.80
2022-08-22T07:06:27.995Z,6.80
2022-08-22T07:07:27.993Z,8.10
2022-08-22T07:08:27.992Z,7.20
2022-08-22T07:09:27.995Z,8.60
2022-08-22T07:10:27.991Z,8.30
2022-08-22T07:11:27.990Z,7.90
2022-08-22T07:12:27.989Z,7.40
2022-08-22T07:13:27.985Z,9.30
2022-08-22T07:14:27.989Z,7.50
2022-08-22T07:15:27.983Z,9.60
2022-08-22T07:16:27.985Z,8.10
2022-08-22T07:17:27.985Z,9.00
2022-08-22T07:18:27.985Z,6.10
2022-08-22T07:19:27.983Z,6.50
2022-08-22T07:20:28.023Z,6.10
2022-08-22T07:21:27.978Z,6.40
2022-08-22T07:22:27.981Z,6.30
2022-08-22T07:23:27.989Z,5.80
2022-08-22T07:24:27.983Z,6.60
2022-08-22T07:25:27.976Z,6.80
2022-08-22T07:26:27.982Z,5.90
2022-08-22T07:27:27.983Z,7.40
2022-08-22T07:28:36.886Z,4.20
2022-08-22T07:29:27.978Z,5.30
2022-08-22T07:30:28.587Z,5.50
2022-08-22T07:31:27.981Z,8.20
2022-08-22T07:32:27.979Z,5.60
2022-08-22T07:33:27.992Z,5.90
2022-08-22T07:34:27.985Z,5.90
2022-08-22T07:35:27.979Z,5.60
2022-08-22T07:36:31.635Z,4.50
2022-08-22T07:37:27.979Z,6.40
2022-08-22T07:38:27.981Z,6.70
2022-08-22T07:39:27.986Z,5.60
2022-08-22T07:40:27.979Z,3.80
2022-08-22T07:41:27.980Z,4.90
2022-08-22T07:42:30.302Z,5.70
2022-08-22T07:43:27.980Z,4.00
2022-08-22T07:44:27.984Z,6.80
2022-08-22T07:45:27.982Z,6.20
2022-08-22T07:46:27.984Z,4.30
2022-08-22T07:47:27.980Z,4.80
2022-08-22T07:48:27.984Z,4.40
2022-08-22T07:49:27.984Z,4.90
2022-08-22T07:50:27.985Z,4.60
2022-08-22T07:51:27.982Z,4.50
2022-08-22T07:52:27.985Z,4.90
2022-08-22T07:53:27.982Z,6.30
2022-08-22T07:54:27.987Z,6.70
2022-08-22T07:55:27.977Z,4.50
2022-08-22T07:56:27.981Z,4.50
2022-08-22T07:57:27.987Z,4.30
2022-08-22T07:58:27.984Z,4.00
2022-08-22T07:59:27.993Z,3.30
2022-08-22T08:00:28.007Z,3.60
2022-08-22T08:01:28.022Z,3.80
2022-08-22T08:02:27.984Z,4.50
2022-08-22T08:03:27.988Z,5.00
2022-08-22T08:04:28.020Z,7.00
2022-08-22T08:05:27.983Z,5.10
2022-08-22T08:06:27.998Z,4.00
2022-08-22T08:07:28.001Z,4.30
2022-08-22T08:08:28.003Z,3.50
2022-08-22T08:09:27.987Z,4.60
2022-08-22T08:10:28.006Z,5.70
2022-08-22T08:11:27.987Z,4.50
2022-08-22T08:12:27.982Z,6.00
2022-08-22T08:13:27.991Z,5.40
2022-08-22T08:14:27.989Z,6.80
2022-08-22T08:15:27.987Z,4.10
2022-08-22T08:16:27.982Z,4.80
2022-08-22T08:17:32.022Z,4.90
2022-08-22T08:18:27.982Z,6.00
2022-08-22T08:19:27.987Z,5.20
2022-08-22T08:20:27.988Z,4.70
2022-08-22T08:21:27.992Z,5.90
2022-08-22T08:22:27.984Z,6.00
2022-08-22T08:23:27.980Z,7.30
2022-08-22T08:24:27.996Z,5.30
2022-08-22T08:25:27.987Z,5.00
2022-08-22T08:26:27.986Z,5.60
2022-08-22T08:27:27.986Z,4.30
2022-08-22T08:28:27.984Z,5.80
2022-08-22T08:29:27.985Z,5.60
2022-08-22T08:30:27.986Z,4.80
2022-08-22T08:31:27.985Z,5.60
2022-08-22T08:32:27.987Z,5.10
2022-08-22T08:33:27.986Z,7.50
2022-08-22T08:34:27.987Z,5.80
2022-08-22T08:35:27.985Z,4.50
2022-08-22T08:36:27.986Z,5.40
2022-08-22T08:37:27.985Z,4.50
2022-08-22T08:38:27.983Z,5.60
2022-08-22T08:39:35.028Z,4.70
2022-08-22T08:40:27.989Z,5.20
2022-08-22T08:41:27.985Z,4.20
2022-08-22T08:42:27.984Z,7.90
2022-08-22T08:43:27.988Z,5.00
2022-08-22T08:44:27.982Z,4.20
2022-08-22T08:45:28.939Z,4.20
2022-08-22T08:46:28.029Z,5.90
2022-08-22T08:47:27.988Z,4.40
2022-08-22T08:48:27.999Z,5.80
2022-08-22T08:49:27.989Z,5.50
2022-08-22T08:50:27.990Z,5.40
2022-08-22T08:51:27.985Z,4.60
2022-08-22T08:52:27.989Z,6.30
2022-08-22T08:53:27.990Z,3.70
2022-08-22T08:54:27.988Z,4.00
2022-08-22T08:55:27.989Z,4.70
2022-08-22T08:56:27.989Z,3.70
2022-08-22T08:57:27.986Z,5.00
2022-08-22T08:58:28.005Z,5.80
2022-08-22T08:59:27.992Z,4.80
2022-08-22T09:00:29.140Z,4.60
2022-08-22T09:01:28.615Z,6.00
2022-08-22T09:02:27.989Z,5.00
2022-08-22T09:03:31.019Z,5.00
2022-08-22T09:04:27.986Z,3.30
2022-08-22T09:05:27.983Z,4.50
2022-08-22T09:06:27.988Z,5.20
2022-08-22T09:07:27.988Z,5.50
2022-08-22T09:08:27.989Z,4.20
2022-08-22T09:09:27.991Z,5.00
2022-08-22T09:10:29.430Z,5.10
2022-08-22T09:12:27.990Z,4.70
2022-08-22T09:13:28.171Z,5.40
2022-08-22T09:14:27.987Z,6.60
2022-08-22T09:15:27.989Z,4.40
2022-08-22T09:16:27.993Z,4.30
2022-08-22T09:17:27.992Z,6.40
2022-08-22T09:18:27.991Z,5.20
2022-08-22T09:19:28.000Z,5.10
2022-08-22T09:20:27.991Z,3.60
2022-08-22T09:21:31.486Z,5.70
2022-08-22T09:22:27.996Z,6.30
2022-08-22T09:23:28.000Z,4.90
2022-08-22T09:24:27.988Z,6.20
2022-08-22T09:26:27.992Z,4.90
2022-08-22T09:27:28.000Z,4.80
2022-08-22T09:28:28.313Z,6.10
2022-08-22T09:29:28.991Z,5.50
2022-08-22T09:30:28.940Z,4.80
2022-08-22T09:31:44.900Z,5.30
2022-08-22T09:32:27.993Z,5.60
2022-08-22T09:33:28.421Z,4.40
2022-08-22T09:34:27.992Z,5.30
2022-08-22T09:35:27.998Z,4.30
2022-08-22T09:36:28.553Z,5.60
2022-08-22T09:37:27.995Z,4.80
2022-08-22T09:38:27.995Z,4.20
2022-08-22T09:39:27.998Z,5.30
2022-08-22T09:40:15.395Z,4.10
2022-08-22T09:40:15.556Z,5.10
2022-08-22T09:41:27.996Z,5.50
2022-08-22T09:42:27.997Z,4.10
2022-08-22T09:43:27.997Z,6.70
2022-08-22T09:44:28.007Z,6.20
2022-08-22T09:45:27.998Z,5.50
2022-08-22T09:46:31.443Z,5.00
2022-08-22T09:47:27.999Z,7.00
2022-08-22T09:48:28.001Z,5.40
2022-08-22T09:49:28.003Z,4.20
2022-08-22T09:50:29.375Z,5.90
2022-08-22T09:51:32.372Z,4.90
2022-08-22T09:52:33.953Z,5.60
2022-08-22T09:53:28.004Z,4.30
2022-08-22T09:54:31.015Z,4.10
2022-08-22T09:55:35.154Z,4.60
2022-08-22T09:56:29.065Z,4.20
2022-08-22T09:57:28.003Z,5.20
2022-08-22T09:58:28.017Z,5.10
2022-08-22T09:59:28.008Z,4.30
2022-08-22T10:00:28.010Z,5.90
2022-08-22T10:01:32.780Z,5.60
2022-08-22T10:02:28.015Z,4.70
2022-08-22T10:03:28.010Z,3.40
2022-08-22T10:04:28.011Z,4.60
2022-08-22T10:05:35.198Z,4.80
2022-08-22T10:06:28.013Z,3.60
2022-08-22T10:07:28.015Z,4.20
2022-08-22T10:08:28.014Z,7.10
2022-08-22T10:09:31.309Z,5.00
2022-08-22T10:10:28.016Z,4.30
2022-08-22T10:11:28.867Z,5.50
2022-08-22T10:12:31.470Z,5.40
2022-08-22T10:13:28.016Z,5.50
2022-08-22T10:14:28.019Z,5.80
2022-08-22T10:15:28.018Z,6.10
2022-08-22T10:16:28.021Z,3.90
2022-08-22T10:17:28.018Z,4.50
2022-08-22T10:18:28.024Z,6.00
2022-08-22T10:19:28.046Z,6.30
2022-08-22T10:20:28.025Z,4.20
2022-08-22T10:21:28.025Z,4.60
2022-08-22T10:22:29.983Z,4.70
2022-08-22T10:23:28.024Z,5.50
2022-08-22T10:24:28.029Z,5.00
2022-08-22T10:25:28.573Z,4.90
2022-08-22T10:26:28.023Z,5.70
2022-08-22T10:27:28.925Z,5.70
2022-08-22T10:28:28.509Z,4.90
2022-08-22T10:29:28.249Z,5.90
2022-08-22T10:30:28.030Z,4.90
2022-08-22T10:31:28.030Z,5.30
2022-08-22T10:32:28.031Z,6.00
2022-08-22T10:33:29.177Z,6.00
2022-08-22T10:34:28.033Z,4.60
2022-08-22T10:35:28.035Z,4.00
2022-08-22T10:36:28.038Z,6.80
2022-08-22T10:37:28.036Z,3.00
2022-08-22T10:38:28.039Z,5.70
2022-08-22T10:39:28.042Z,4.10
2022-08-22T10:40:28.096Z,5.00
2022-08-22T10:41:28.038Z,5.00
2022-08-22T10:42:28.617Z,4.50
2022-08-22T10:43:28.589Z,4.90
2022-08-22T10:44:28.044Z,3.20
2022-08-22T10:45:35.997Z,3.70
2022-08-22T10:46:28.045Z,4.60
2022-08-22T10:47:28.042Z,3.60
2022-08-22T10:48:28.045Z,4.10
2022-08-22T10:49:28.832Z,4.30
2022-08-22T10:50:31.016Z,2.70
2022-08-22T10:51:28.842Z,3.90
2022-08-22T10:52:28.049Z,3.50
2022-08-22T10:53:29.679Z,3.10
2022-08-22T10:54:28.054Z,4.80
2022-08-22T10:55:28.051Z,5.80
2022-08-22T10:56:28.054Z,4.10
2022-08-22T10:57:28.053Z,4.00
2022-08-22T10:58:28.051Z,3.70
2022-08-22T10:59:28.056Z,3.70
2022-08-22T11:00:28.058Z,4.00
2022-08-22T11:01:37.630Z,3.50
2022-08-22T11:02:28.058Z,4.20
2022-08-22T11:03:28.059Z,6.00
2022-08-22T11:04:28.488Z,3.90
2022-08-22T11:05:28.114Z,3.40
2022-08-22T11:06:28.057Z,3.40
2022-08-22T11:07:28.065Z,5.10
2022-08-22T11:08:28.068Z,2.90
2022-08-22T11:09:29.040Z,4.30
2022-08-22T11:10:28.066Z,4.20
2022-08-22T11:11:32.881Z,3.60
2022-08-22T11:12:28.215Z,4.70
2022-08-22T11:13:28.076Z,5.00
2022-08-22T11:14:28.068Z,5.00
2022-08-22T11:15:34.677Z,4.80
2022-08-22T11:16:28.069Z,4.50
2022-08-22T11:17:32.338Z,5.60
2022-08-22T11:18:28.069Z,4.20
2022-08-22T11:19:28.065Z,3.80
2022-08-22T11:20:28.069Z,4.10
2022-08-22T11:21:28.066Z,3.50
2022-08-22T11:22:28.079Z,3.00
2022-08-22T11:23:28.072Z,4.40
2022-08-22T11:24:28.086Z,4.40
2022-08-22T11:25:38.939Z,5.30
2022-08-22T11:26:33.586Z,2.50
2022-08-22T11:27:34.597Z,3.40
2022-08-22T11:28:28.730Z,2.90
2022-08-22T11:29:28.086Z,3.20
2022-08-22T11:30:28.079Z,4.10
2022-08-22T11:31:28.081Z,3.70
2022-08-22T11:32:28.084Z,3.50
2022-08-22T11:33:39.091Z,3.90
2022-08-22T11:34:28.089Z,3.80
2022-08-22T11:35:28.084Z,2.90
2022-08-22T11:36:31.138Z,4.00
2022-08-22T11:37:42.753Z,4.80
2022-08-22T11:38:32.606Z,3.90
2022-08-22T11:39:28.089Z,3.30
2022-08-22T11:40:28.161Z,3.80
2022-08-22T11:41:28.091Z,3.90
2022-08-22T11:42:29.622Z,2.70
2022-08-22T11:43:28.087Z,3.90
2022-08-22T11:44:28.090Z,3.30
2022-08-22T11:45:28.106Z,3.70
2022-08-22T11:46:28.100Z,4.40
2022-08-22T11:47:28.807Z,5.10
2022-08-22T11:48:28.093Z,2.90
2022-08-22T11:49:28.097Z,3.70
2022-08-22T11:50:28.095Z,3.40
2022-08-22T11:51:28.099Z,3.10
2022-08-22T11:52:28.097Z,3.00
2022-08-22T11:53:28.153Z,3.30
2022-08-22T11:54:30.926Z,2.80
2022-08-22T11:55:32.814Z,4.20
2022-08-22T11:56:28.103Z,4.00
2022-08-22T11:57:28.104Z,2.80
2022-08-22T11:58:29.044Z,4.80
2022-08-22T11:59:28.103Z,3.20
2022-08-22T12:00:28.105Z,4.40
2022-08-22T12:01:28.105Z,4.20
2022-08-22T12:02:28.176Z,2.70
2022-08-22T12:03:28.108Z,3.90
2022-08-22T12:04:28.107Z,4.20
2022-08-22T12:05:28.114Z,3.70
2022-08-22T12:06:28.116Z,5.20
2022-08-22T12:07:28.106Z,3.20
2022-08-22T12:08:28.108Z,4.80
2022-08-22T12:09:28.107Z,4.70
2022-08-22T12:10:28.113Z,3.80
2022-08-22T12:11:28.112Z,5.80
2022-08-22T12:12:28.138Z,5.00
2022-08-22T12:13:35.049Z,7.50
2022-08-22T12:14:28.127Z,8.30
2022-08-22T12:15:28.115Z,5.70
2022-08-22T12:16:28.116Z,5.10
2022-08-22T12:17:51.180Z,3.30
2022-08-22T12:18:28.120Z,5.50
2022-08-22T12:19:28.120Z,3.60
2022-08-22T12:20:28.116Z,4.10
2022-08-22T12:21:28.117Z,5.70
2022-08-22T12:22:28.835Z,3.60
2022-08-22T12:23:43.175Z,4.60
2022-08-22T12:24:28.150Z,6.00
2022-08-22T12:25:28.120Z,4.60
2022-08-22T12:26:28.124Z,3.70
2022-08-22T12:27:29.234Z,4.60
2022-08-22T12:28:28.129Z,3.90
2022-08-22T12:29:33.802Z,4.10
2022-08-22T12:30:28.127Z,3.50
2022-08-22T12:31:28.127Z,5.20
2022-08-22T12:32:28.127Z,3.60
2022-08-22T12:33:28.136Z,3.50
2022-08-22T12:34:28.132Z,4.80
2022-08-22T12:35:29.868Z,4.70
2022-08-22T12:36:28.130Z,3.40
2022-08-22T12:37:28.134Z,3.60
2022-08-22T12:38:29.843Z,4.10
2022-08-22T12:39:28.147Z,4.30
2022-08-22T12:40:28.174Z,3.70
2022-08-22T12:41:35.080Z,3.40
2022-08-22T12:42:28.196Z,3.80
2022-08-22T12:43:28.150Z,3.40
2022-08-22T12:44:28.138Z,6.40
2022-08-22T12:45:28.137Z,3.80
2022-08-22T12:46:28.284Z,3.20
2022-08-22T12:47:28.148Z,3.60
2022-08-22T12:48:28.138Z,3.20
2022-08-22T12:49:28.144Z,3.40
2022-08-22T12:50:28.143Z,4.70
2022-08-22T12:51:29.422Z,4.10
2022-08-22T12:52:28.181Z,3.60
2022-08-22T12:53:28.352Z,4.30
2022-08-22T12:54:28.148Z,3.70
2022-08-22T12:55:28.149Z,4.00
2022-08-22T12:56:28.158Z,4.90
2022-08-22T12:57:28.147Z,4.90
2022-08-22T12:58:31.774Z,4.10
2022-08-22T12:59:28.149Z,3.80
2022-08-22T13:00:29.450Z,3.50
2022-08-22T13:01:34.238Z,3.70
2022-08-22T13:02:28.154Z,3.60
2022-08-22T13:03:28.161Z,3.60
2022-08-22T13:04:33.086Z,5.30
2022-08-22T13:05:28.162Z,3.90
2022-08-22T13:06:28.161Z,3.20
2022-08-22T13:07:28.161Z,2.70
2022-08-22T13:08:28.164Z,5.10
2022-08-22T13:09:28.544Z,4.10
2022-08-22T13:10:28.163Z,4.20
2022-08-22T13:11:28.167Z,4.20
2022-08-22T13:12:28.214Z,4.60
2022-08-22T13:13:31.735Z,6.60
2022-08-22T13:14:28.170Z,5.40
2022-08-22T13:15:28.171Z,4.50
2022-08-22T13:16:28.166Z,2.40
2022-08-22T13:17:28.170Z,4.10
2022-08-22T13:18:30.454Z,4.30